Time;durP1;ratioP1;P1;durP2;ratioP2;P2;SDS_P1;SDS_P2;PMS_P1;PMS_P2;Temp;Humidity;BMP_temperature;BMP_pressure;BME280_temperature;BME280_humidity;BME280_pressure;Samples;Min_cycle;Max_cycle;Signal;HPM_P1;HPM_P2
2023/02/05 00:00:55;;;;;;;;;;;10.10;81.40;;;8.71;66.04;102622.91;5026312;28;20449;-84
2023/02/05 00:03:22;;;;;;;;;;;10.00;81.40;;;8.69;66.07;102616.91;5021993;28;20040;-84
2023/02/05 00:05:49;;;;;;;;;;;10.00;81.40;;;8.68;66.24;102609.06;5024588;28;19933;-84
2023/02/05 00:08:17;;;;;;;;;;;10.20;81.70;;;8.68;66.10;102609.91;5029100;28;19929;-84
2023/02/05 00:10:44;;;;;;;;;;;10.00;81.50;;;8.68;66.03;102615.22;5032770;28;19960;-84
2023/02/05 00:13:11;;;;;;;;;;;10.00;81.60;;;8.68;66.35;102593.94;5037324;28;19940;-85
2023/02/05 00:15:40;;;;;;;;;;;10.00;81.60;;;8.69;66.22;102595.63;5024230;28;20087;-84
2023/02/05 00:18:07;;;;;;;;;;;10.00;81.70;;;8.69;66.22;102600.13;5021238;28;19934;-84
2023/02/05 00:20:35;;;;;;;;;;;10.00;81.70;;;8.68;66.44;102593.09;5007726;28;19929;-84
2023/02/05 00:23:02;;;;;;;;;;;10.00;81.90;;;8.67;66.55;102592.25;5014741;28;20009;-84
2023/02/05 00:25:30;;;;;;;;;;;10.00;82.00;;;8.67;66.58;102589.59;5032706;28;19936;-84
2023/02/05 00:27:57;;;;;;;;;;;10.00;82.20;;;8.67;66.71;102584.28;5020226;28;20016;-84
2023/02/05 00:30:24;;;;;;;;;;;10.00;82.30;;;8.68;66.72;102583.28;5021297;28;19929;-84
2023/02/05 00:32:51;;;;;;;;;;;10.20;82.50;;;8.70;66.55;102585.84;5020766;28;20400;-84
2023/02/05 00:35:18;;;;;;;;;;;10.00;82.20;;;8.71;66.60;102583.00;5025042;28;19929;-84
2023/02/05 00:37:45;;;;;;;;;;;10.00;82.40;;;8.72;66.73;102573.22;5010254;28;19936;-84
2023/02/05 00:40:12;;;;;;;;;;;10.00;82.30;;;8.73;66.55;102575.72;5011668;28;20020;-84
2023/02/05 00:42:41;;;;;;;;;;;10.00;82.20;;;8.77;66.36;102566.47;5029045;28;19929;-84
2023/02/05 00:45:09;;;;;;;;;;;10.00;82.20;;;8.77;66.30;102557.63;5011983;28;19929;-84
2023/02/05 00:47:36;;;;;;;;;;;10.00;82.10;;;8.74;66.46;102548.16;5026663;28;19929;-84
2023/02/05 00:50:03;;;;;;;;;;;10.00;82.30;;;8.75;66.43;102552.47;5021361;28;19929;-84
2023/02/05 00:52:30;;;;;;;;;;;10.00;82.40;;;8.74;66.62;102550.81;5024147;28;20270;-84
2023/02/05 00:54:57;;;;;;;;;;;10.00;82.50;;;8.76;66.41;102545.34;5005799;28;19929;-84
2023/02/05 00:57:24;;;;;;;;;;;10.00;82.40;;;8.73;66.66;102545.63;5036232;28;19948;-84
2023/02/05 00:59:52;;;;;;;;;;;10.00;82.60;;;8.74;66.75;102540.16;5020220;28;19933;-84
2023/02/05 01:02:22;;;;;;;;;;;10.00;82.70;;;8.73;66.96;102527.81;5011570;28;19929;-84
2023/02/05 01:04:50;;;;;;;;;;;10.00;82.90;;;8.72;66.85;102536.81;5022755;28;20308;-84
2023/02/05 01:07:17;;;;;;;;;;;10.00;82.90;;;8.75;67.02;102525.88;5032969;28;19980;-84
2023/02/05 01:09:44;;;;;;;;;;;10.00;83.00;;;8.76;67.20;102522.22;5029973;28;19933;-84
2023/02/05 01:12:12;;;;;;;;;;;10.00;83.10;;;8.75;67.36;102517.91;5011666;28;20006;-84
2023/02/05 01:14:40;;;;;;;;;;;10.00;83.10;;;8.76;67.28;102511.56;5011402;28;19936;-84
2023/02/05 01:17:08;;;;;;;;;;;10.00;83.30;;;8.76;67.39;102505.44;5011583;28;19986;-84
2023/02/05 01:19:36;;;;;;;;;;;10.00;83.30;;;8.75;67.28;102488.63;5018088;28;19933;-84
2023/02/05 01:22:03;;;;;;;;;;;10.00;83.30;;;8.76;67.22;102487.63;5015374;28;19971;-85
2023/02/05 01:24:30;;;;;;;;;;;10.00;83.30;;;8.76;67.27;102484.97;5005658;28;19925;-84
2023/02/05 01:26:57;;;;;;;;;;;10.00;83.30;;;8.77;67.34;102494.63;5006772;28;19925;-84
2023/02/05 01:29:25;;;;;;;;;;;10.30;83.50;;;8.81;67.29;102499.66;5016384;28;20329;-84
2023/02/05 01:31:52;;;;;;;;;;;10.00;83.20;;;8.83;66.91;102506.50;5032260;28;19983;-84
2023/02/05 01:34:20;;;;;;;;;;;10.00;83.10;;;8.83;67.01;102511.81;5027793;28;19925;-84
2023/02/05 01:36:47;;;;;;;;;;;10.00;82.90;;;8.79;67.14;102504.31;5011253;28;19926;-84
2023/02/05 01:39:14;;;;;;;;;;;10.00;83.10;;;8.78;67.20;102508.75;5014558;28;19976;-84
2023/02/05 01:41:43;;;;;;;;;;;10.20;83.30;;;8.76;67.29;102513.41;5009275;28;20297;-84
2023/02/05 01:44:12;;;;;;;;;;;10.00;83.20;;;8.73;67.48;102513.69;5014547;28;20301;-84
2023/02/05 01:46:40;;;;;;;;;;;10.00;83.30;;;8.70;67.64;102509.53;5012674;28;19944;-84
2023/02/05 01:49:09;;;;;;;;;;;10.00;83.30;;;8.70;67.50;102506.88;5032192;28;19940;-84
2023/02/05 01:51:38;;;;;;;;;;;9.90;83.30;;;8.71;67.53;102500.56;5029010;28;19925;-84
2023/02/05 01:54:06;;;;;;;;;;;10.00;83.30;;;8.70;67.53;102498.88;5026302;28;20020;-84
2023/02/05 01:56:36;;;;;;;;;;;9.90;83.40;;;8.71;67.53;102495.22;5022156;28;19926;-84
2023/02/05 01:59:07;;;;;;;;;;;9.90;83.50;;;8.74;67.41;102491.44;5021758;28;19958;-84
2023/02/05 02:01:35;;;;;;;;;;;9.90;83.30;;;8.73;67.38;102495.91;5025888;28;20005;-84
2023/02/05 02:04:03;;;;;;;;;;;10.00;83.20;;;8.74;67.36;102497.59;5046464;28;19967;-84
2023/02/05 02:06:32;;;;;;;;;;;10.00;83.20;;;8.74;67.19;102481.63;5011106;28;19971;-84
2023/02/05 02:09:01;;;;;;;;;;;10.00;83.10;;;8.72;67.36;102494.22;5027538;28;19925;-84
2023/02/05 02:11:30;;;;;;;;;;;10.00;83.10;;;8.70;67.52;102504.19;5030188;28;20392;-84
2023/02/05 02:13:59;;;;;;;;;;;9.90;83.30;;;8.71;67.45;102497.88;5014071;28;19953;-84
2023/02/05 02:16:27;;;;;;;;;;;9.90;83.30;;;8.72;67.43;102510.19;5027637;28;19926;-84
2023/02/05 02:18:54;;;;;;;;;;;9.90;83.30;;;8.70;67.49;102512.19;5021704;28;19929;-84
2023/02/05 02:21:55;;;;;;;;;;;9.90;83.30;;;8.70;67.37;102514.84;5010963;28;19932;-82
2023/02/05 02:24:37;;;;;;;;;;;10.00;83.30;;;8.68;67.28;102518.63;5017190;28;19929;-84
2023/02/05 02:27:37;;;;;;;;;;;10.10;83.30;;;8.68;67.62;102522.13;5006103;28;20393;-85
2023/02/05 02:30:09;;;;;;;;;;;10.00;83.30;;;8.68;67.70;102510.63;5008299;28;20360;-84
2023/02/05 02:32:39;;;;;;;;;;;9.90;83.40;;;8.67;67.62;102508.97;5022353;28;19928;-84
2023/02/05 02:35:10;;;;;;;;;;;9.90;83.40;;;8.68;67.71;102513.31;5030743;28;20417;-84
2023/02/05 02:37:45;;;;;;;;;;;9.90;83.50;;;8.68;67.79;102519.44;5011347;28;19983;-84
2023/02/05 02:40:18;;;;;;;;;;;9.90;83.60;;;8.70;67.63;102512.19;5023472;28;19929;-84
2023/02/05 02:42:50;;;;;;;;;;;9.90;83.50;;;8.73;67.46;102508.38;5013207;28;20412;-84
2023/02/05 02:45:18;;;;;;;;;;;9.90;83.50;;;8.71;67.47;102499.72;5005150;28;20052;-84
2023/02/05 02:47:48;;;;;;;;;;;9.80;83.50;;;8.72;67.42;102494.22;5009807;28;19933;-84
2023/02/05 02:50:21;;;;;;;;;;;9.90;83.50;;;8.66;67.40;102494.84;5019839;28;19933;-84
2023/02/05 02:52:50;;;;;;;;;;;9.80;83.40;;;8.66;67.54;102497.50;5030574;28;20106;-82
2023/02/05 02:55:19;;;;;;;;;;;9.80;83.70;;;8.63;67.48;102486.31;5012582;28;19929;-82
2023/02/05 02:57:51;;;;;;;;;;;9.80;83.70;;;8.60;67.71;102483.97;5010190;28;19933;-83
2023/02/05 03:00:22;;;;;;;;;;;9.80;84.00;;;8.56;67.73;102491.41;5013005;28;20023;-83
2023/02/05 03:02:50;;;;;;;;;;;9.80;83.90;;;8.57;68.00;102490.41;5005182;28;20385;-84
2023/02/05 03:05:23;;;;;;;;;;;9.90;84.10;;;8.61;67.73;102493.63;5012229;28;19929;-85
2023/02/05 03:07:54;;;;;;;;;;;9.80;84.00;;;8.51;68.30;102489.19;5009482;28;19947;-84
2023/02/05 03:10:25;;;;;;;;;;;9.70;84.30;;;8.52;68.21;102482.03;5009419;28;20402;-85
2023/02/05 03:12:55;;;;;;;;;;;9.70;84.40;;;8.56;68.14;102480.75;5017436;28;20012;-84
2023/02/05 03:15:23;;;;;;;;;;;9.80;84.40;;;8.59;68.11;102475.16;5014372;28;19952;-84
2023/02/05 03:17:51;;;;;;;;;;;9.70;84.30;;;8.63;67.97;102467.69;5007993;28;20407;-84
2023/02/05 03:20:22;;;;;;;;;;;9.70;84.30;;;8.61;68.25;102462.53;5016107;28;19933;-84
2023/02/05 03:22:49;;;;;;;;;;;9.70;84.40;;;8.61;68.04;102448.41;5010412;28;19926;-84
2023/02/05 03:25:19;;;;;;;;;;;9.70;84.30;;;8.59;68.15;102451.22;5022770;28;19936;-84
2023/02/05 03:27:46;;;;;;;;;;;9.80;84.40;;;8.59;68.16;102440.59;5014802;28;19929;-85
2023/02/05 03:30:15;;;;;;;;;;;9.80;84.50;;;8.62;68.29;102445.59;5021753;28;19929;-84
2023/02/05 03:32:52;;;;;;;;;;;9.80;84.50;;;8.63;68.15;102433.13;5012534;28;19925;-84
2023/02/05 03:35:28;;;;;;;;;;;9.80;84.50;;;8.58;68.57;102435.38;5010722;28;20296;-85
2023/02/05 03:38:16;;;;;;;;;;;9.70;84.60;;;8.54;68.62;102428.69;5010952;28;19929;-84
2023/02/05 03:40:47;;;;;;;;;;;9.70;84.70;;;8.58;68.73;102430.06;5018764;28;19924;-85
2023/02/05 03:43:24;;;;;;;;;;;9.70;84.90;;;8.58;68.62;102438.06;5021147;28;19935;-84
2023/02/05 03:45:59;;;;;;;;;;;9.70;84.90;;;8.60;68.77;102442.25;5018513;28;19925;-85
2023/02/05 03:48:37;;;;;;;;;;;9.70;84.90;;;8.64;68.62;102440.97;5006048;28;20418;-84
2023/02/05 03:51:16;;;;;;;;;;;9.80;84.90;;;8.66;68.57;102441.63;5020623;28;19968;-84
2023/02/05 03:53:49;;;;;;;;;;;9.80;84.80;;;8.67;68.68;102437.16;5010426;28;19925;-84
2023/02/05 03:56:19;;;;;;;;;;;9.80;84.90;;;8.67;68.82;102437.16;5032330;28;19935;-84
2023/02/05 03:58:49;;;;;;;;;;;9.80;84.90;;;8.67;68.85;102424.69;5009530;28;20349;-84
2023/02/05 04:01:20;;;;;;;;;;;9.80;84.80;;;8.66;69.02;102422.19;5023784;28;19964;-84
2023/02/05 04:03:47;;;;;;;;;;;9.80;85.10;;;8.65;69.17;102434.66;5012734;28;19934;-84
2023/02/05 04:06:15;;;;;;;;;;;9.80;85.20;;;8.67;69.38;102437.16;5006241;28;20373;-84
2023/02/05 04:08:43;;;;;;;;;;;9.80;85.40;;;8.70;69.39;102448.34;4998702;28;19926;-84
2023/02/05 04:11:10;;;;;;;;;;;9.80;85.50;;;8.69;69.57;102452.00;5011731;28;20313;-85
2023/02/05 04:13:38;;;;;;;;;;;9.80;85.80;;;8.70;69.48;102448.34;5019020;28;19940;-84
2023/02/05 04:16:08;;;;;;;;;;;9.80;85.90;;;8.73;69.46;102450.69;5015443;28;19932;-82
2023/02/05 04:18:37;;;;;;;;;;;9.80;85.90;;;8.72;69.59;102451.69;5016966;28;20011;-83
2023/02/05 04:21:04;;;;;;;;;;;9.80;85.90;;;8.72;69.88;102450.84;5004238;28;19933;-83
2023/02/05 04:23:33;;;;;;;;;;;9.80;86.30;;;8.74;70.26;102459.53;5007728;28;19929;-85
2023/02/05 04:26:01;;;;;;;;;;;9.80;86.50;;;8.71;70.74;102465.97;5018652;28;20385;-85
2023/02/05 04:28:35;;;;;;;;;;;9.80;86.70;;;8.70;70.60;102466.13;5015207;28;20229;-84
2023/02/05 04:31:06;;;;;;;;;;;9.80;86.70;;;8.69;70.95;102470.63;5024153;28;19929;-84
2023/02/05 04:33:34;;;;;;;;;;;9.90;87.00;;;8.72;71.11;102478.28;5030908;28;20301;-85
2023/02/05 04:36:03;;;;;;;;;;;9.80;87.00;;;8.66;71.51;102478.03;5037051;23;20003;-76
2023/02/05 04:38:30;;;;;;;;;;;9.80;87.30;;;8.70;71.55;102480.25;5026875;28;19964;-75
2023/02/05 04:40:57;;;;;;;;;;;9.80;87.30;;;8.72;71.43;102480.94;5032728;28;19978;-76
2023/02/05 04:43:23;;;;;;;;;;;9.80;87.30;;;8.73;71.26;102473.78;5033493;28;19929;-75
2023/02/05 04:45:51;;;;;;;;;;;9.80;87.20;;;8.69;71.83;102475.94;5030436;28;19946;-76
2023/02/05 04:48:20;;;;;;;;;;;9.80;87.60;;;8.71;71.74;102475.78;5011748;28;19925;-76
2023/02/05 04:50:47;;;;;;;;;;;9.80;87.60;;;8.74;71.78;102470.16;5032893;28;19992;-77
2023/02/05 04:53:15;;;;;;;;;;;9.80;87.50;;;8.71;71.90;102473.13;5031185;28;19936;-75
2023/02/05 04:55:42;;;;;;;;;;;9.90;87.50;;;8.69;72.13;102462.63;5030459;28;19944;-76
2023/02/05 04:58:09;;;;;;;;;;;9.80;87.70;;;8.71;72.26;102463.31;5026819;28;20390;-76
2023/02/05 05:00:36;;;;;;;;;;;9.80;87.80;;;8.72;72.11;102459.66;5029297;28;19941;-75
2023/02/05 05:03:03;;;;;;;;;;;9.90;87.70;;;8.74;72.10;102467.50;5025545;28;19925;-76
2023/02/05 05:05:30;;;;;;;;;;;9.80;87.70;;;8.74;71.96;102456.88;5032146;28;20400;-76
2023/02/05 05:07:59;;;;;;;;;;;9.80;87.80;;;8.77;72.14;102452.06;5030154;28;19929;-76
2023/02/05 05:10:27;;;;;;;;;;;9.90;87.90;;;8.76;72.01;102460.19;5031670;28;19960;-75
2023/02/05 05:12:54;;;;;;;;;;;9.90;87.80;;;8.75;72.16;102451.38;5030328;28;19928;-75
2023/02/05 05:15:21;;;;;;;;;;;9.90;87.90;;;8.77;72.16;102454.72;5028542;28;19929;-75
2023/02/05 05:17:48;;;;;;;;;;;9.90;87.90;;;8.78;72.15;102447.56;5030025;28;19925;-75
2023/02/05 05:20:15;;;;;;;;;;;9.90;87.70;;;8.79;72.29;102453.75;5030216;28;19932;-76
2023/02/05 05:22:42;;;;;;;;;;;9.90;87.80;;;8.82;71.99;102446.28;5032010;28;19929;-76
2023/02/05 05:25:09;;;;;;;;;;;10.00;87.80;;;8.83;72.08;102449.78;5029886;28;19933;-76
2023/02/05 05:27:37;;;;;;;;;;;10.00;87.70;;;8.84;72.13;102439.00;5024404;28;19930;-75
2023/02/05 05:30:05;;;;;;;;;;;10.00;87.70;;;8.85;71.98;102431.84;5030875;28;19933;-76
2023/02/05 05:32:32;;;;;;;;;;;10.00;87.60;;;8.83;72.20;102436.47;5031737;28;19936;-76
2023/02/05 05:34:58;;;;;;;;;;;10.00;87.70;;;8.85;72.31;102437.19;5023413;28;19932;-75
2023/02/05 05:37:26;;;;;;;;;;;10.00;87.90;;;8.85;72.34;102435.34;5030150;28;20308;-75
2023/02/05 05:45:19;;;;;;;;;;;10.00;87.90;;;8.87;72.20;102427.22;5031660;28;19929;-76
2023/02/05 05:47:46;;;;;;;;;;;10.00;87.90;;;8.87;72.58;102429.88;5029758;28;20482;-75
2023/02/05 05:50:13;;;;;;;;;;;10.00;87.90;;;8.80;72.78;102432.31;5030968;28;20004;-75
2023/02/05 05:52:40;;;;;;;;;;;10.00;88.10;;;8.79;73.02;102430.66;5031451;28;20458;-76
2023/02/05 05:55:08;;;;;;;;;;;10.00;88.20;;;8.75;73.32;102435.44;5025564;28;19925;-76
2023/02/05 05:57:35;;;;;;;;;;;10.00;88.50;;;8.72;73.90;102435.72;5030615;28;19935;-77
2023/02/05 06:00:02;;;;;;;;;;;9.90;88.80;;;8.75;73.65;102432.75;5027731;28;19933;-75
2023/02/05 06:02:43;;;;;;;;;;;9.90;88.70;;;8.80;74.04;102439.47;5029333;28;20012;-76
2023/02/05 06:05:10;;;;;;;;;;;9.90;88.90;;;8.75;73.91;102432.75;5031481;28;19939;-76
2023/02/05 06:07:37;;;;;;;;;;;9.90;89.10;;;8.77;73.81;102432.59;5029311;28;19933;-75
2023/02/05 06:10:05;;;;;;;;;;;9.90;89.10;;;8.79;73.82;102432.47;5031232;28;20385;-76
2023/02/05 06:12:32;;;;;;;;;;;9.90;89.20;;;8.79;73.81;102429.81;5030854;28;19936;-76
2023/02/05 06:14:58;;;;;;;;;;;9.90;89.20;;;8.81;73.78;102427.81;5031302;28;19932;-76
2023/02/05 06:17:26;;;;;;;;;;;9.90;89.10;;;8.81;73.98;102425.16;5026610;28;20586;-75
2023/02/05 06:19:55;;;;;;;;;;;9.90;89.20;;;8.83;73.94;102436.47;5025444;28;19960;-76
2023/02/05 06:22:22;;;;;;;;;;;9.90;89.10;;;8.82;73.96;102426.81;5029993;28;19929;-74
2023/02/05 06:24:48;;;;;;;;;;;10.00;89.10;;;8.84;73.91;102432.84;5028281;28;19982;-76
2023/02/05 06:27:15;;;;;;;;;;;10.00;89.10;;;8.85;73.99;102423.88;5030017;28;19944;-76
2023/02/05 06:29:42;;;;;;;;;;;10.00;89.10;;;8.88;73.72;102428.88;5029330;28;19932;-76
2023/02/05 06:32:09;;;;;;;;;;;10.00;89.10;;;8.88;74.05;102428.88;5027322;28;19929;-75
2023/02/05 06:34:36;;;;;;;;;;;10.00;89.00;;;8.87;74.00;102427.22;5028424;28;20590;-75
2023/02/05 06:37:04;;;;;;;;;;;10.00;89.30;;;8.89;73.96;102422.59;5027375;28;19929;-76
2023/02/05 06:39:31;;;;;;;;;;;10.00;89.30;;;8.89;74.06;102419.94;5029965;28;19925;-75
2023/02/05 06:41:58;;;;;;;;;;;10.00;89.20;;;8.90;73.96;102416.28;5029598;28;20436;-76
2023/02/05 06:44:25;;;;;;;;;;;10.00;89.10;;;8.89;74.02;102417.28;5029817;28;20031;-76
2023/02/05 06:46:52;;;;;;;;;;;10.00;89.30;;;8.90;73.94;102405.63;5028967;28;19936;-76
2023/02/05 06:49:19;;;;;;;;;;;10.00;89.20;;;8.90;74.01;102401.16;5029147;28;19979;-76
2023/02/05 06:51:46;;;;;;;;;;;10.00;89.30;;;8.89;74.16;102406.63;5008818;28;19932;-76
2023/02/05 06:54:14;;;;;;;;;;;10.00;89.50;;;8.90;74.17;102402.97;5029093;28;19925;-76
2023/02/05 06:56:41;;;;;;;;;;;10.00;89.50;;;8.89;74.26;102403.97;5028429;28;19928;-76
2023/02/05 06:59:08;;;;;;;;;;;10.00;89.70;;;8.90;74.42;102402.97;5020888;28;20314;-77
2023/02/05 07:01:35;;;;;;;;;;;10.00;89.60;;;8.90;74.12;102401.16;5027595;28;19929;-76
2023/02/05 07:04:02;;;;;;;;;;;10.10;89.70;;;8.89;74.41;102395.97;5027257;28;19929;-76
2023/02/05 07:06:29;;;;;;;;;;;10.00;89.70;;;8.89;74.39;102388.00;5023672;28;20028;-76
2023/02/05 07:08:58;;;;;;;;;;;10.00;89.70;;;8.86;74.54;102407.75;5025894;28;20294;-77
2023/02/05 07:11:26;;;;;;;;;;;10.00;89.80;;;8.65;75.93;102392.09;5023277;28;20381;-77
2023/02/05 07:13:53;;;;;;;;;;;9.90;90.40;;;8.70;75.88;102395.13;5027790;28;19929;-77
2023/02/05 07:16:20;;;;;;;;;;;9.90;90.40;;;8.74;75.51;102396.50;5028673;28;19940;-76
2023/02/05 07:18:47;;;;;;;;;;;9.90;90.30;;;8.69;75.79;102398.78;5026254;28;19936;-77
2023/02/05 07:21:16;;;;;;;;;;;9.80;90.60;;;8.70;75.75;102399.63;5024586;28;19929;-77
2023/02/05 07:23:43;;;;;;;;;;;9.90;90.60;;;8.72;75.68;102400.31;5024543;28;19929;-76
2023/02/05 07:26:12;;;;;;;;;;;9.80;90.50;;;8.75;75.64;102390.19;5026714;28;19933;-78
2023/02/05 07:28:41;;;;;;;;;;;9.90;90.50;;;8.68;75.97;102390.94;5025654;28;19933;-79
2023/02/05 07:31:11;;;;;;;;;;;9.80;90.60;;;8.73;75.92;102388.66;5029295;28;19929;-80
2023/02/05 07:33:38;;;;;;;;;;;9.80;90.60;;;8.73;75.94;102396.66;5023360;28;19983;-78
2023/02/05 07:36:06;;;;;;;;;;;9.80;90.60;;;8.73;75.67;102388.66;5023018;28;19926;-76
2023/02/05 07:38:34;;;;;;;;;;;9.80;90.80;;;8.72;75.91;102387.00;5025754;28;19952;-75
2023/02/05 07:41:04;;;;;;;;;;;9.80;90.80;;;8.72;75.76;102382.50;5019848;28;19933;-80
2023/02/05 07:43:31;;;;;;;;;;;9.80;90.70;;;8.59;76.32;102381.22;5023887;28;19940;-76
2023/02/05 07:46:00;;;;;;;;;;;9.80;91.00;;;8.61;76.46;102390.72;5021004;28;20412;-76
2023/02/05 07:48:27;;;;;;;;;;;9.70;91.10;;;8.58;76.47;102385.69;5028892;28;19929;-76
2023/02/05 07:50:54;;;;;;;;;;;9.70;91.20;;;8.59;76.38;102394.50;5019394;28;19948;-76
2023/02/05 07:53:21;;;;;;;;;;;9.70;91.20;;;8.62;76.35;102387.06;5024241;28;19929;-75
2023/02/05 07:55:48;;;;;;;;;;;9.70;91.10;;;8.67;76.09;102389.28;5021992;28;19930;-76
2023/02/05 07:58:16;;;;;;;;;;;9.80;91.00;;;8.68;75.93;102386.47;5026752;28;19925;-77
2023/02/05 08:00:43;;;;;;;;;;;9.80;91.00;;;8.63;75.88;102394.06;5026479;28;20032;-75
2023/02/05 08:03:11;;;;;;;;;;;9.70;91.00;;;8.59;75.96;102386.53;5029197;28;19929;-79
2023/02/05 08:05:39;;;;;;;;;;;9.70;91.00;;;8.59;75.86;102394.50;5027286;28;19937;-76
2023/02/05 08:08:06;;;;;;;;;;;9.70;91.00;;;8.62;75.87;102396.88;5020595;28;20278;-75
2023/02/05 08:10:34;;;;;;;;;;;9.70;90.80;;;8.59;75.59;102395.38;5027882;28;20031;-76
2023/02/05 08:13:00;;;;;;;;;;;9.70;90.60;;;8.54;75.89;102399.44;5023670;28;19940;-75
2023/02/05 08:15:27;;;;;;;;;;;9.70;90.80;;;8.49;75.89;102403.41;5025971;28;19932;-76
2023/02/05 08:17:54;;;;;;;;;;;9.70;90.90;;;8.50;76.13;102404.25;5025508;28;19931;-75
2023/02/05 08:20:23;;;;;;;;;;;9.60;90.80;;;8.48;75.82;102400.88;5029405;28;19929;-75
2023/02/05 08:22:50;;;;;;;;;;;9.60;90.90;;;8.38;76.36;102406.25;5020024;28;19929;-75
2023/02/05 08:25:17;;;;;;;;;;;9.50;91.20;;;8.34;76.57;102406.66;5009813;28;19936;-75
2023/02/05 08:27:44;;;;;;;;;;;9.50;91.30;;;8.34;76.99;102406.66;5012779;28;19937;-76
2023/02/05 08:30:14;;;;;;;;;;;9.50;91.50;;;8.32;76.69;102408.66;5022207;28;19933;-75
2023/02/05 08:32:41;;;;;;;;;;;9.50;91.40;;;8.08;77.77;102411.84;5029541;28;19929;-75
2023/02/05 08:35:08;;;;;;;;;;;9.40;91.60;;;8.11;77.75;102417.72;5029267;28;19925;-76
2023/02/05 08:37:36;;;;;;;;;;;9.40;91.80;;;8.10;77.50;102408.06;5028663;28;19929;-76
2023/02/05 08:40:04;;;;;;;;;;;9.50;91.80;;;8.03;77.83;102427.41;5028335;28;19929;-76
2023/02/05 08:42:31;;;;;;;;;;;9.30;91.60;;;8.08;77.94;102430.44;5027287;28;19929;-76
2023/02/05 08:44:58;;;;;;;;;;;9.30;91.70;;;7.91;77.47;102429.41;5027224;28;19925;-76
2023/02/05 08:47:26;;;;;;;;;;;9.30;91.20;;;7.84;77.91;102438.91;5024430;28;19932;-76
2023/02/05 08:49:53;;;;;;;;;;;9.30;91.30;;;7.83;77.74;102445.22;5029294;28;19957;-75
2023/02/05 08:52:20;;;;;;;;;;;9.20;91.00;;;7.91;77.50;102456.81;5029309;28;19929;-75
2023/02/05 08:54:49;;;;;;;;;;;9.20;91.20;;;7.63;76.85;102441.78;5028432;28;20278;-75
2023/02/05 08:57:16;;;;;;;;;;;9.10;90.20;;;7.75;77.01;102443.28;5026909;28;19929;-75
2023/02/05 08:59:43;;;;;;;;;;;9.10;90.60;;;7.83;76.68;102435.44;5026829;28;19987;-75
2023/02/05 09:02:13;;;;;;;;;;;9.10;90.70;;;7.92;76.84;102436.38;5029101;28;19951;-75
2023/02/05 09:04:41;;;;;;;;;;;9.20;90.60;;;7.93;76.62;102448.69;5021444;28;20420;-76
2023/02/05 09:07:07;;;;;;;;;;;9.20;90.70;;;7.85;76.16;102445.91;5027601;28;20404;-76
2023/02/05 09:09:35;;;;;;;;;;;9.10;90.30;;;7.83;76.40;102445.22;5028164;28;19929;-75
2023/02/05 09:12:04;;;;;;;;;;;9.20;90.20;;;7.80;75.60;102459.63;5029478;28;19935;-75
2023/02/05 09:14:35;;;;;;;;;;;9.20;89.70;;;7.70;75.76;102453.50;5018602;28;19929;-77
2023/02/05 09:17:02;;;;;;;;;;;9.10;89.70;;;7.78;76.02;102455.44;5025744;28;19960;-75
2023/02/05 09:19:30;;;;;;;;;;;9.10;90.00;;;7.74;75.97;102466.34;5019007;28;19933;-75
2023/02/05 09:21:57;;;;;;;;;;;9.10;90.00;;;7.74;75.69;102474.31;5026255;28;20301;-76
2023/02/05 09:24:24;;;;;;;;;;;9.10;90.00;;;7.69;76.13;102478.38;5032398;28;20270;-74
2023/02/05 09:26:51;;;;;;;;;;;9.10;90.00;;;7.80;76.02;102470.25;5021659;28;20361;-76
2023/02/05 09:29:20;;;;;;;;;;;9.10;90.20;;;7.83;75.76;102474.44;5021158;28;19931;-74
2023/02/05 09:31:47;;;;;;;;;;;9.10;90.20;;;7.80;76.13;102474.72;5032517;28;19929;-74
2023/02/05 09:34:14;;;;;;;;;;;9.10;90.20;;;7.81;76.27;102473.72;5031328;28;19925;-74
2023/02/05 09:36:41;;;;;;;;;;;9.10;90.40;;;7.72;76.38;102480.75;5023152;28;19934;-74
2023/02/05 09:39:09;;;;;;;;;;;9.10;90.20;;;7.88;76.26;102480.16;5031024;28;19940;-75
2023/02/05 09:41:41;;;;;;;;;;;9.10;90.40;;;7.96;75.98;102475.81;5030193;28;19971;-75
2023/02/05 09:44:15;;;;;;;;;;;9.20;90.40;;;7.95;75.80;102470.63;5031532;28;19979;-75
2023/02/05 09:46:48;;;;;;;;;;;9.20;90.40;;;7.77;76.49;102481.16;5030481;28;19933;-75
2023/02/05 09:49:18;;;;;;;;;;;9.20;90.10;;;7.87;76.37;102468.69;5013335;28;19925;-75
2023/02/05 09:51:47;;;;;;;;;;;9.20;90.30;;;7.84;76.06;102486.72;5012384;28;19983;-75
2023/02/05 09:54:20;;;;;;;;;;;9.20;90.00;;;7.92;76.02;102468.28;5023758;28;20559;-75
2023/02/05 09:56:48;;;;;;;;;;;9.20;90.10;;;7.87;75.81;102483.81;5028706;28;19933;-74
2023/02/05 09:59:18;;;;;;;;;;;9.20;89.90;;;7.95;75.14;102482.09;5021132;28;19933;-75
2023/02/05 10:01:50;;;;;;;;;;;9.20;90.00;;;7.92;75.44;102494.84;5028599;28;19925;-75
2023/02/05 10:04:18;;;;;;;;;;;9.20;89.80;;;7.92;75.41;102476.25;5011888;28;20575;-75
2023/02/05 10:07:02;;;;;;;;;;;9.20;89.80;;;7.98;75.13;102476.50;5011458;28;19979;-75
2023/02/05 10:09:44;;;;;;;;;;;9.20;89.80;;;8.03;75.36;102478.72;5015783;28;20385;-75
2023/02/05 10:12:19;;;;;;;;;;;9.20;90.00;;;8.11;75.29;102473.53;5024531;28;19933;-75
2023/02/05 10:14:54;;;;;;;;;;;9.30;90.20;;;8.10;75.12;102466.53;5030492;28;19929;-75
2023/02/05 10:17:34;;;;;;;;;;;9.30;90.10;;;8.07;75.27;102472.13;5028599;28;19933;-75
2023/02/05 10:20:20;;;;;;;;;;;9.30;90.00;;;8.11;75.32;102462.88;5031383;28;20023;-75
2023/02/05 10:22:58;;;;;;;;;;;9.30;90.20;;;8.04;75.76;102471.56;5031329;28;19925;-75
2023/02/05 10:25:49;;;;;;;;;;;9.40;90.00;;;7.97;76.02;102466.84;5030391;28;19929;-75
2023/02/05 10:28:27;;;;;;;;;;;9.20;90.20;;;7.96;76.37;102467.84;5023531;28;19929;-75
2023/02/05 10:30:58;;;;;;;;;;;9.20;90.50;;;8.08;76.24;102465.81;5031213;28;19959;-74
2023/02/05 10:33:40;;;;;;;;;;;9.20;90.70;;;8.12;76.22;102450.44;5029186;28;19936;-75
2023/02/05 10:36:09;;;;;;;;;;;9.30;90.80;;;8.12;76.12;102450.44;5059220;22;19929;-76
2023/02/05 10:38:41;;;;;;;;;;;9.30;90.90;;;8.08;76.31;102462.34;5050498;28;19932;-75
2023/02/05 10:41:15;;;;;;;;;;;9.30;90.80;;;8.08;76.23;102463.16;5044661;28;19928;-75
2023/02/05 10:43:47;;;;;;;;;;;9.30;90.80;;;7.98;76.56;102446.44;5051205;28;19976;-75
2023/02/05 10:46:15;;;;;;;;;;;9.30;90.70;;;8.00;76.51;102449.75;5049006;28;19929;-75
2023/02/05 10:48:45;;;;;;;;;;;9.30;90.80;;;8.05;76.66;102454.66;5031096;28;20294;-75
2023/02/05 10:51:14;;;;;;;;;;;9.30;90.90;;;8.08;76.62;102451.72;5030168;28;19933;-75
2023/02/05 10:53:42;;;;;;;;;;;9.30;90.90;;;8.10;76.56;102445.28;5046738;28;19940;-76
2023/02/05 10:56:15;;;;;;;;;;;9.30;90.80;;;8.05;76.31;102450.16;5050188;28;20445;-76
2023/02/05 10:58:46;;;;;;;;;;;9.30;90.70;;;8.06;76.40;102453.69;5050455;28;19939;-75
2023/02/05 11:01:16;;;;;;;;;;;9.30;90.80;;;8.11;76.37;102457.56;5048914;28;20057;-76
2023/02/05 11:03:54;;;;;;;;;;;9.30;90.80;;;8.18;76.42;102450.69;5050459;28;19935;-75
2023/02/05 11:06:23;;;;;;;;;;;9.30;90.90;;;8.18;76.23;102452.50;5038117;28;19929;-75
2023/02/05 11:08:50;;;;;;;;;;;9.40;90.80;;;8.16;76.12;102457.97;5047984;28;19931;-75
2023/02/05 11:11:22;;;;;;;;;;;9.40;90.80;;;8.15;76.41;102456.31;5050164;28;20027;-76
2023/02/05 11:13:54;;;;;;;;;;;9.40;90.70;;;8.07;76.59;102460.66;5050608;28;20293;-75
2023/02/05 11:16:22;;;;;;;;;;;9.40;90.80;;;8.00;76.42;102455.06;5048023;28;19933;-76
2023/02/05 11:18:58;;;;;;;;;;;9.30;90.60;;;8.07;76.66;102461.50;5048743;28;20373;-76
2023/02/05 11:21:42;;;;;;;;;;;9.40;90.90;;;8.01;76.32;102467.41;5049966;28;19935;-75
2023/02/05 11:24:21;;;;;;;;;;;9.30;90.60;;;7.94;76.93;102450.34;5049231;28;19943;-75
2023/02/05 11:26:48;;;;;;;;;;;9.30;90.70;;;7.87;77.33;102449.28;5047507;28;19925;-75
2023/02/05 11:29:19;;;;;;;;;;;9.30;90.90;;;7.97;77.30;102450.06;5048394;28;19925;-75
2023/02/05 11:31:46;;;;;;;;;;;9.30;91.10;;;8.05;76.97;102449.31;5050356;28;20039;-75
2023/02/05 11:34:18;;;;;;;;;;;9.30;91.10;;;8.00;77.30;102447.09;5047537;28;19929;-76
2023/02/05 11:36:50;;;;;;;;;;;9.30;91.20;;;7.98;76.88;102446.44;5047069;28;19924;-75